sensor_id;sensor_type;location;lat;lon;timestamp;P1;durP1;ratioP1;P2;durP2;ratioP2
54177;SDS011;40085;53.004;6.770;2023-04-01T00:01:25;4.15;;;2.28;;
54177;SDS011;40085;53.004;6.770;2023-04-01T00:03:51;3.28;;;1.92;;
54177;SDS011;40085;53.004;6.770;2023-04-01T00:06:17;2.92;;;1.92;;
54177;SDS011;40085;53.004;6.770;2023-04-01T00:08:43;3.28;;;2.10;;
54177;SDS011;40085;53.004;6.770;2023-04-01T00:11:10;4.10;;;2.33;;
54177;SDS011;40085;53.004;6.770;2023-04-01T00:13:35;4.57;;;2.10;;
54177;SDS011;40085;53.004;6.770;2023-04-01T00:16:01;4.28;;;2.05;;
54177;SDS011;40085;53.004;6.770;2023-04-01T00:18:29;2.65;;;2.15;;
54177;SDS011;40085;53.004;6.770;2023-04-01T00:20:55;2.83;;;1.80;;
54177;SDS011;40085;53.004;6.770;2023-04-01T00:23:21;2.53;;;1.70;;
54177;SDS011;40085;53.004;6.770;2023-04-01T00:25:47;4.20;;;1.80;;
54177;SDS011;40085;53.004;6.770;2023-04-01T00:28:13;3.42;;;2.00;;
54177;SDS011;40085;53.004;6.770;2023-04-01T00:30:40;4.63;;;1.83;;
54177;SDS011;40085;53.004;6.770;2023-04-01T00:33:06;3.38;;;1.77;;
54177;SDS011;40085;53.004;6.770;2023-04-01T00:35:31;2.05;;;1.67;;
54177;SDS011;40085;53.004;6.770;2023-04-01T00:37:57;2.92;;;1.80;;
54177;SDS011;40085;53.004;6.770;2023-04-01T00:40:37;5.05;;;2.08;;
54177;SDS011;40085;53.004;6.770;2023-04-01T00:45:39;2.47;;;1.55;;
54177;SDS011;40085;53.004;6.770;2023-04-01T00:48:09;2.80;;;1.85;;
54177;SDS011;40085;53.004;6.770;2023-04-01T00:50:38;2.15;;;1.45;;
54177;SDS011;40085;53.004;6.770;2023-04-01T00:53:07;3.53;;;2.13;;
54177;SDS011;40085;53.004;6.770;2023-04-01T00:55:35;4.95;;;2.22;;
54177;SDS011;40085;53.004;6.770;2023-04-01T00:58:05;2.65;;;1.55;;
54177;SDS011;40085;53.004;6.770;2023-04-01T01:00:36;2.65;;;2.00;;
54177;SDS011;40085;53.004;6.770;2023-04-01T01:03:02;3.13;;;1.95;;
54177;SDS011;40085;53.004;6.770;2023-04-01T01:05:36;3.55;;;2.20;;
54177;SDS011;40085;53.004;6.770;2023-04-01T01:08:25;5.78;;;1.95;;
54177;SDS011;40085;53.004;6.770;2023-04-01T01:11:08;3.95;;;1.85;;
54177;SDS011;40085;53.004;6.770;2023-04-01T01:13:43;5.15;;;2.20;;
54177;SDS011;40085;53.004;6.770;2023-04-01T01:16:29;3.72;;;2.03;;
54177;SDS011;40085;53.004;6.770;2023-04-01T01:24:37;2.75;;;1.88;;
54177;SDS011;40085;53.004;6.770;2023-04-01T01:27:16;2.63;;;1.77;;
54177;SDS011;40085;53.004;6.770;2023-04-01T01:35:28;3.63;;;2.10;;
54177;SDS011;40085;53.004;6.770;2023-04-01T01:37:59;2.40;;;1.75;;
54177;SDS011;40085;53.004;6.770;2023-04-01T01:40:28;2.85;;;1.95;;
54177;SDS011;40085;53.004;6.770;2023-04-01T01:42:59;3.63;;;2.10;;
54177;SDS011;40085;53.004;6.770;2023-04-01T01:45:29;4.75;;;1.83;;
54177;SDS011;40085;53.004;6.770;2023-04-01T01:47:58;6.25;;;1.77;;
54177;SDS011;40085;53.004;6.770;2023-04-01T01:50:26;4.10;;;1.77;;
54177;SDS011;40085;53.004;6.770;2023-04-01T01:53:00;4.13;;;2.20;;
54177;SDS011;40085;53.004;6.770;2023-04-01T01:55:31;3.78;;;1.90;;
54177;SDS011;40085;53.004;6.770;2023-04-01T01:58:00;3.35;;;2.20;;
54177;SDS011;40085;53.004;6.770;2023-04-01T02:00:31;2.63;;;1.83;;
54177;SDS011;40085;53.004;6.770;2023-04-01T02:02:58;3.65;;;1.63;;
54177;SDS011;40085;53.004;6.770;2023-04-01T02:05:25;3.35;;;1.88;;
54177;SDS011;40085;53.004;6.770;2023-04-01T02:07:55;3.33;;;1.98;;
54177;SDS011;40085;53.004;6.770;2023-04-01T02:10:31;4.10;;;1.80;;
54177;SDS011;40085;53.004;6.770;2023-04-01T02:13:01;5.15;;;1.65;;
54177;SDS011;40085;53.004;6.770;2023-04-01T02:15:33;2.42;;;1.52;;
54177;SDS011;40085;53.004;6.770;2023-04-01T02:18:06;4.28;;;1.92;;
54177;SDS011;40085;53.004;6.770;2023-04-01T02:20:32;4.20;;;2.15;;
54177;SDS011;40085;53.004;6.770;2023-04-01T02:23:00;4.18;;;1.67;;
54177;SDS011;40085;53.004;6.770;2023-04-01T02:25:29;2.33;;;1.50;;
54177;SDS011;40085;53.004;6.770;2023-04-01T02:27:58;1.98;;;1.42;;
54177;SDS011;40085;53.004;6.770;2023-04-01T02:30:26;5.47;;;1.58;;
54177;SDS011;40085;53.004;6.770;2023-04-01T02:32:54;3.20;;;1.52;;
54177;SDS011;40085;53.004;6.770;2023-04-01T02:35:21;3.20;;;1.95;;
54177;SDS011;40085;53.004;6.770;2023-04-01T02:37:48;3.10;;;1.70;;
54177;SDS011;40085;53.004;6.770;2023-04-01T02:40:17;2.05;;;1.23;;
54177;SDS011;40085;53.004;6.770;2023-04-01T02:42:42;2.45;;;1.30;;
54177;SDS011;40085;53.004;6.770;2023-04-01T02:45:09;3.78;;;1.42;;
54177;SDS011;40085;53.004;6.770;2023-04-01T02:47:35;2.45;;;1.00;;
54177;SDS011;40085;53.004;6.770;2023-04-01T02:50:01;1.58;;;0.70;;
54177;SDS011;40085;53.004;6.770;2023-04-01T02:52:27;5.32;;;1.00;;
54177;SDS011;40085;53.004;6.770;2023-04-01T02:54:54;2.42;;;1.50;;
54177;SDS011;40085;53.004;6.770;2023-04-01T02:57:20;2.35;;;1.25;;
54177;SDS011;40085;53.004;6.770;2023-04-01T02:59:46;2.28;;;1.48;;
54177;SDS011;40085;53.004;6.770;2023-04-01T03:02:12;4.13;;;2.00;;
54177;SDS011;40085;53.004;6.770;2023-04-01T03:04:38;3.28;;;1.65;;
54177;SDS011;40085;53.004;6.770;2023-04-01T03:07:04;3.72;;;2.03;;
54177;SDS011;40085;53.004;6.770;2023-04-01T03:09:30;3.38;;;1.88;;
54177;SDS011;40085;53.004;6.770;2023-04-01T03:11:55;4.47;;;2.20;;
54177;SDS011;40085;53.004;6.770;2023-04-01T03:14:21;2.55;;;1.77;;
54177;SDS011;40085;53.004;6.770;2023-04-01T03:16:47;3.47;;;2.30;;
54177;SDS011;40085;53.004;6.770;2023-04-01T03:19:12;2.95;;;1.85;;
54177;SDS011;40085;53.004;6.770;2023-04-01T03:21:38;3.75;;;2.00;;
54177;SDS011;40085;53.004;6.770;2023-04-01T03:24:04;3.35;;;1.92;;
54177;SDS011;40085;53.004;6.770;2023-04-01T03:26:31;5.30;;;2.30;;
54177;SDS011;40085;53.004;6.770;2023-04-01T03:28:57;4.03;;;2.50;;
54177;SDS011;40085;53.004;6.770;2023-04-01T03:31:22;3.63;;;2.00;;
54177;SDS011;40085;53.004;6.770;2023-04-01T03:33:49;4.70;;;2.50;;
54177;SDS011;40085;53.004;6.770;2023-04-01T03:36:15;4.20;;;2.55;;
54177;SDS011;40085;53.004;6.770;2023-04-01T03:38:41;3.67;;;1.95;;
54177;SDS011;40085;53.004;6.770;2023-04-01T03:41:07;2.95;;;2.00;;
54177;SDS011;40085;53.004;6.770;2023-04-01T03:43:36;5.68;;;2.55;;
54177;SDS011;40085;53.004;6.770;2023-04-01T03:46:01;4.65;;;2.60;;
54177;SDS011;40085;53.004;6.770;2023-04-01T03:48:27;5.38;;;2.35;;
54177;SDS011;40085;53.004;6.770;2023-04-01T03:50:53;5.35;;;2.78;;
54177;SDS011;40085;53.004;6.770;2023-04-01T03:53:18;4.72;;;2.70;;
54177;SDS011;40085;53.004;6.770;2023-04-01T03:55:44;3.65;;;2.20;;
54177;SDS011;40085;53.004;6.770;2023-04-01T03:58:10;3.92;;;2.38;;
54177;SDS011;40085;53.004;6.770;2023-04-01T04:00:36;4.68;;;2.60;;
54177;SDS011;40085;53.004;6.770;2023-04-01T04:03:02;4.22;;;2.40;;
54177;SDS011;40085;53.004;6.770;2023-04-01T04:05:28;4.43;;;2.63;;
54177;SDS011;40085;53.004;6.770;2023-04-01T04:07:53;4.68;;;2.50;;
54177;SDS011;40085;53.004;6.770;2023-04-01T04:10:19;3.88;;;2.47;;
54177;SDS011;40085;53.004;6.770;2023-04-01T04:12:48;4.68;;;2.60;;
54177;SDS011;40085;53.004;6.770;2023-04-01T04:15:14;4.95;;;2.70;;
54177;SDS011;40085;53.004;6.770;2023-04-01T04:17:40;8.13;;;3.03;;
54177;SDS011;40085;53.004;6.770;2023-04-01T04:20:06;5.28;;;2.90;;
54177;SDS011;40085;53.004;6.770;2023-04-01T04:22:33;5.45;;;2.50;;
54177;SDS011;40085;53.004;6.770;2023-04-01T04:24:59;4.32;;;2.72;;
54177;SDS011;40085;53.004;6.770;2023-04-01T04:27:24;5.05;;;2.78;;
54177;SDS011;40085;53.004;6.770;2023-04-01T04:29:50;4.13;;;2.47;;
54177;SDS011;40085;53.004;6.770;2023-04-01T04:32:15;4.50;;;2.55;;
54177;SDS011;40085;53.004;6.770;2023-04-01T04:34:41;3.63;;;2.10;;
54177;SDS011;40085;53.004;6.770;2023-04-01T04:37:07;5.72;;;2.50;;
54177;SDS011;40085;53.004;6.770;2023-04-01T04:39:32;5.20;;;2.67;;
54177;SDS011;40085;53.004;6.770;2023-04-01T04:41:58;4.95;;;2.90;;
54177;SDS011;40085;53.004;6.770;2023-04-01T04:44:23;4.88;;;2.75;;
54177;SDS011;40085;53.004;6.770;2023-04-01T04:46:49;5.80;;;2.97;;
54177;SDS011;40085;53.004;6.770;2023-04-01T04:49:15;4.90;;;2.63;;
54177;SDS011;40085;53.004;6.770;2023-04-01T04:51:41;4.95;;;2.90;;
54177;SDS011;40085;53.004;6.770;2023-04-01T04:54:06;6.38;;;3.17;;
54177;SDS011;40085;53.004;6.770;2023-04-01T04:56:33;5.47;;;2.95;;
54177;SDS011;40085;53.004;6.770;2023-04-01T04:58:58;5.65;;;3.40;;
54177;SDS011;40085;53.004;6.770;2023-04-01T05:01:24;5.50;;;3.03;;
54177;SDS011;40085;53.004;6.770;2023-04-01T05:03:50;6.75;;;2.90;;
54177;SDS011;40085;53.004;6.770;2023-04-01T05:06:17;6.95;;;3.70;;
54177;SDS011;40085;53.004;6.770;2023-04-01T05:08:44;5.75;;;3.05;;
54177;SDS011;40085;53.004;6.770;2023-04-01T05:11:11;7.45;;;3.78;;
54177;SDS011;40085;53.004;6.770;2023-04-01T05:13:38;4.03;;;2.58;;
54177;SDS011;40085;53.004;6.770;2023-04-01T05:16:07;5.88;;;3.03;;
54177;SDS011;40085;53.004;6.770;2023-04-01T05:18:36;6.85;;;2.72;;
54177;SDS011;40085;53.004;6.770;2023-04-01T05:21:02;3.60;;;2.03;;
54177;SDS011;40085;53.004;6.770;2023-04-01T05:23:28;3.80;;;2.17;;
54177;SDS011;40085;53.004;6.770;2023-04-01T05:25:58;2.65;;;1.70;;
54177;SDS011;40085;53.004;6.770;2023-04-01T05:28:27;3.38;;;1.90;;
54177;SDS011;40085;53.004;6.770;2023-04-01T05:30:52;5.15;;;2.50;;
54177;SDS011;40085;53.004;6.770;2023-04-01T05:33:18;4.32;;;2.08;;
54177;SDS011;40085;53.004;6.770;2023-04-01T05:35:44;4.13;;;2.60;;
54177;SDS011;40085;53.004;6.770;2023-04-01T05:38:09;4.60;;;2.50;;
54177;SDS011;40085;53.004;6.770;2023-04-01T05:40:35;4.10;;;2.63;;
54177;SDS011;40085;53.004;6.770;2023-04-01T05:43:01;3.42;;;2.08;;
54177;SDS011;40085;53.004;6.770;2023-04-01T05:45:27;2.65;;;1.67;;
54177;SDS011;40085;53.004;6.770;2023-04-01T05:47:54;4.13;;;2.30;;
54177;SDS011;40085;53.004;6.770;2023-04-01T05:50:20;4.95;;;2.97;;
54177;SDS011;40085;53.004;6.770;2023-04-01T05:52:45;6.85;;;3.50;;
54177;SDS011;40085;53.004;6.770;2023-04-01T05:55:11;4.95;;;3.08;;
54177;SDS011;40085;53.004;6.770;2023-04-01T05:57:36;6.22;;;3.05;;
54177;SDS011;40085;53.004;6.770;2023-04-01T06:00:02;5.25;;;2.92;;
54177;SDS011;40085;53.004;6.770;2023-04-01T06:02:29;5.53;;;3.30;;
54177;SDS011;40085;53.004;6.770;2023-04-01T06:05:00;6.72;;;3.78;;
54177;SDS011;40085;53.004;6.770;2023-04-01T06:07:36;5.85;;;3.22;;
54177;SDS011;40085;53.004;6.770;2023-04-01T06:10:01;7.60;;;4.03;;
54177;SDS011;40085;53.004;6.770;2023-04-01T06:12:40;6.80;;;3.33;;
54177;SDS011;40085;53.004;6.770;2023-04-01T06:15:30;7.17;;;4.17;;
54177;SDS011;40085;53.004;6.770;2023-04-01T06:24:00;10.30;;;4.32;;
54177;SDS011;40085;53.004;6.770;2023-04-01T06:43:05;9.95;;;4.53;;
54177;SDS011;40085;53.004;6.770;2023-04-01T06:45:48;6.22;;;3.70;;
54177;SDS011;40085;53.004;6.770;2023-04-01T06:50:58;7.22;;;3.72;;
54177;SDS011;40085;53.004;6.770;2023-04-01T06:53:46;9.07;;;4.38;;
54177;SDS011;40085;53.004;6.770;2023-04-01T06:56:17;6.88;;;3.92;;
54177;SDS011;40085;53.004;6.770;2023-04-01T06:58:50;7.00;;;4.43;;
54177;SDS011;40085;53.004;6.770;2023-04-01T07:01:21;7.15;;;4.40;;
54177;SDS011;40085;53.004;6.770;2023-04-01T07:03:55;8.15;;;4.65;;
54177;SDS011;40085;53.004;6.770;2023-04-01T07:06:43;6.25;;;3.45;;
54177;SDS011;40085;53.004;6.770;2023-04-01T07:09:18;9.13;;;4.60;;
54177;SDS011;40085;53.004;6.770;2023-04-01T07:11:46;8.25;;;4.13;;
54177;SDS011;40085;53.004;6.770;2023-04-01T07:17:14;9.63;;;4.30;;
54177;SDS011;40085;53.004;6.770;2023-04-01T07:22:42;7.55;;;4.05;;
54177;SDS011;40085;53.004;6.770;2023-04-01T07:25:12;9.75;;;4.70;;
54177;SDS011;40085;53.004;6.770;2023-04-01T07:28:02;7.55;;;3.97;;
54177;SDS011;40085;53.004;6.770;2023-04-01T07:30:49;7.00;;;4.20;;
54177;SDS011;40085;53.004;6.770;2023-04-01T07:33:35;8.20;;;3.97;;
54177;SDS011;40085;53.004;6.770;2023-04-01T07:36:17;8.63;;;3.72;;
54177;SDS011;40085;53.004;6.770;2023-04-01T07:42:30;6.63;;;3.47;;
54177;SDS011;40085;53.004;6.770;2023-04-01T07:45:16;6.68;;;3.85;;
54177;SDS011;40085;53.004;6.770;2023-04-01T07:48:19;10.15;;;4.25;;
54177;SDS011;40085;53.004;6.770;2023-04-01T07:51:08;7.15;;;3.63;;
54177;SDS011;40085;53.004;6.770;2023-04-01T08:07:20;6.97;;;3.47;;
54177;SDS011;40085;53.004;6.770;2023-04-01T08:12:55;5.78;;;3.05;;
54177;SDS011;40085;53.004;6.770;2023-04-01T08:15:38;5.32;;;2.75;;
54177;SDS011;40085;53.004;6.770;2023-04-01T08:18:41;4.47;;;2.15;;
54177;SDS011;40085;53.004;6.770;2023-04-01T08:21:25;4.47;;;2.58;;
54177;SDS011;40085;53.004;6.770;2023-04-01T08:23:52;4.65;;;2.67;;
54177;SDS011;40085;53.004;6.770;2023-04-01T08:29:00;4.20;;;2.47;;
54177;SDS011;40085;53.004;6.770;2023-04-01T08:31:45;4.80;;;2.63;;
54177;SDS011;40085;53.004;6.770;2023-04-01T08:34:17;4.47;;;2.58;;
54177;SDS011;40085;53.004;6.770;2023-04-01T08:36:50;5.05;;;2.70;;
54177;SDS011;40085;53.004;6.770;2023-04-01T08:39:27;5.03;;;2.72;;
54177;SDS011;40085;53.004;6.770;2023-04-01T08:44:41;5.22;;;2.72;;
54177;SDS011;40085;53.004;6.770;2023-04-01T08:58:07;7.03;;;3.95;;
54177;SDS011;40085;53.004;6.770;2023-04-01T09:01:14;5.40;;;2.72;;
54177;SDS011;40085;53.004;6.770;2023-04-01T09:09:35;8.98;;;3.83;;
54177;SDS011;40085;53.004;6.770;2023-04-01T09:42:42;5.90;;;3.75;;
54177;SDS011;40085;53.004;6.770;2023-04-01T09:45:13;7.65;;;3.88;;
54177;SDS011;40085;53.004;6.770;2023-04-01T09:50:57;5.88;;;3.55;;
54177;SDS011;40085;53.004;6.770;2023-04-01T09:56:35;5.30;;;2.72;;
54177;SDS011;40085;53.004;6.770;2023-04-01T10:02:47;5.50;;;2.45;;
54177;SDS011;40085;53.004;6.770;2023-04-01T10:14:40;3.10;;;1.90;;
54177;SDS011;40085;53.004;6.770;2023-04-01T10:39:17;2.90;;;1.80;;
54177;SDS011;40085;53.004;6.770;2023-04-01T10:48:00;2.75;;;1.40;;
54177;SDS011;40085;53.004;6.770;2023-04-01T10:53:34;1.95;;;1.38;;
54177;SDS011;40085;53.004;6.770;2023-04-01T10:59:27;2.17;;;1.38;;
54177;SDS011;40085;53.004;6.770;2023-04-01T11:16:09;1.23;;;0.80;;
54177;SDS011;40085;53.004;6.770;2023-04-01T11:21:55;1.52;;;0.98;;
54177;SDS011;40085;53.004;6.770;2023-04-01T11:33:34;1.33;;;0.95;;
54177;SDS011;40085;53.004;6.770;2023-04-01T11:36:06;1.23;;;0.98;;
54177;SDS011;40085;53.004;6.770;2023-04-01T11:38:43;1.45;;;1.08;;
54177;SDS011;40085;53.004;6.770;2023-04-01T11:41:40;2.30;;;1.13;;
54177;SDS011;40085;53.004;6.770;2023-04-01T11:52:15;1.48;;;1.10;;
54177;SDS011;40085;53.004;6.770;2023-04-01T11:57:43;2.53;;;1.20;;
54177;SDS011;40085;53.004;6.770;2023-04-01T12:00:27;2.28;;;1.10;;
54177;SDS011;40085;53.004;6.770;2023-04-01T12:05:48;1.60;;;1.00;;
54177;SDS011;40085;53.004;6.770;2023-04-01T12:24:47;0.80;;;0.70;;
54177;SDS011;40085;53.004;6.770;2023-04-01T12:32:54;1.65;;;1.08;;
54177;SDS011;40085;53.004;6.770;2023-04-01T12:38:39;1.00;;;0.85;;
54177;SDS011;40085;53.004;6.770;2023-04-01T12:53:01;2.03;;;1.42;;
54177;SDS011;40085;53.004;6.770;2023-04-01T12:55:48;1.58;;;1.00;;
54177;SDS011;40085;53.004;6.770;2023-04-01T13:03:41;1.35;;;1.08;;
54177;SDS011;40085;53.004;6.770;2023-04-01T13:11:39;1.55;;;0.90;;
54177;SDS011;40085;53.004;6.770;2023-04-01T13:14:35;1.40;;;1.00;;
54177;SDS011;40085;53.004;6.770;2023-04-01T13:17:22;1.70;;;0.90;;
54177;SDS011;40085;53.004;6.770;2023-04-01T13:25:46;2.65;;;0.90;;
54177;SDS011;40085;53.004;6.770;2023-04-01T13:28:38;2.25;;;1.00;;
54177;SDS011;40085;53.004;6.770;2023-04-01T13:37:20;1.02;;;0.70;;
54177;SDS011;40085;53.004;6.770;2023-04-01T13:42:32;0.73;;;0.70;;
54177;SDS011;40085;53.004;6.770;2023-04-01T13:45:12;1.08;;;0.90;;
54177;SDS011;40085;53.004;6.770;2023-04-01T13:47:54;1.00;;;0.70;;
54177;SDS011;40085;53.004;6.770;2023-04-01T13:50:49;1.00;;;0.70;;
54177;SDS011;40085;53.004;6.770;2023-04-01T13:56:16;1.17;;;0.80;;
54177;SDS011;40085;53.004;6.770;2023-04-01T14:01:23;2.70;;;0.85;;
54177;SDS011;40085;53.004;6.770;2023-04-01T14:14:44;0.93;;;0.60;;
54177;SDS011;40085;53.004;6.770;2023-04-01T14:17:25;1.15;;;0.75;;
54177;SDS011;40085;53.004;6.770;2023-04-01T14:20:17;0.68;;;0.60;;
54177;SDS011;40085;53.004;6.770;2023-04-01T14:25:51;0.73;;;0.60;;
54177;SDS011;40085;53.004;6.770;2023-04-01T14:28:49;0.85;;;0.70;;
54177;SDS011;40085;53.004;6.770;2023-04-01T14:37:08;1.23;;;0.80;;
54177;SDS011;40085;53.004;6.770;2023-04-01T14:48:34;2.35;;;0.80;;
54177;SDS011;40085;53.004;6.770;2023-04-01T14:51:16;1.02;;;0.77;;
54177;SDS011;40085;53.004;6.770;2023-04-01T14:53:56;0.73;;;0.68;;
54177;SDS011;40085;53.004;6.770;2023-04-01T14:56:37;1.38;;;0.93;;
54177;SDS011;40085;53.004;6.770;2023-04-01T14:59:07;1.30;;;0.90;;
54177;SDS011;40085;53.004;6.770;2023-04-01T15:01:41;2.58;;;1.60;;
54177;SDS011;40085;53.004;6.770;2023-04-01T15:04:43;0.77;;;0.68;;
54177;SDS011;40085;53.004;6.770;2023-04-01T15:07:56;1.80;;;0.95;;
54177;SDS011;40085;53.004;6.770;2023-04-01T15:12:58;1.10;;;0.82;;
54177;SDS011;40085;53.004;6.770;2023-04-01T15:15:46;0.95;;;0.80;;
54177;SDS011;40085;53.004;6.770;2023-04-01T15:21:18;1.48;;;0.80;;
54177;SDS011;40085;53.004;6.770;2023-04-01T15:33:46;1.17;;;0.90;;
54177;SDS011;40085;53.004;6.770;2023-04-01T15:36:44;0.60;;;0.50;;
54177;SDS011;40085;53.004;6.770;2023-04-01T15:42:11;1.13;;;0.70;;
54177;SDS011;40085;53.004;6.770;2023-04-01T15:44:49;1.00;;;0.90;;
54177;SDS011;40085;53.004;6.770;2023-04-01T15:52:39;1.85;;;0.90;;
54177;SDS011;40085;53.004;6.770;2023-04-01T15:55:31;1.20;;;1.10;;
54177;SDS011;40085;53.004;6.770;2023-04-01T16:00:57;2.10;;;1.25;;
54177;SDS011;40085;53.004;6.770;2023-04-01T16:14:19;2.13;;;1.30;;
54177;SDS011;40085;53.004;6.770;2023-04-01T16:17:16;1.77;;;1.38;;
54177;SDS011;40085;53.004;6.770;2023-04-01T16:19:59;3.53;;;1.50;;
54177;SDS011;40085;53.004;6.770;2023-04-01T16:22:39;2.35;;;1.35;;
54177;SDS011;40085;53.004;6.770;2023-04-01T16:28:14;1.75;;;1.30;;
54177;SDS011;40085;53.004;6.770;2023-04-01T16:30:45;2.28;;;1.52;;
54177;SDS011;40085;53.004;6.770;2023-04-01T16:33:17;2.85;;;1.80;;
54177;SDS011;40085;53.004;6.770;2023-04-01T16:38:18;1.83;;;1.38;;
54177;SDS011;40085;53.004;6.770;2023-04-01T16:51:44;3.08;;;1.60;;
54177;SDS011;40085;53.004;6.770;2023-04-01T16:54:43;2.08;;;1.50;;
54177;SDS011;40085;53.004;6.770;2023-04-01T17:00:25;1.80;;;1.05;;
54177;SDS011;40085;53.004;6.770;2023-04-01T17:03:27;2.05;;;1.50;;
54177;SDS011;40085;53.004;6.770;2023-04-01T17:08:50;2.08;;;1.45;;
54177;SDS011;40085;53.004;6.770;2023-04-01T17:11:39;3.70;;;2.03;;
54177;SDS011;40085;53.004;6.770;2023-04-01T17:22:15;3.00;;;1.88;;
54177;SDS011;40085;53.004;6.770;2023-04-01T17:30:24;4.53;;;2.17;;
54177;SDS011;40085;53.004;6.770;2023-04-01T17:32:57;3.78;;;1.77;;
54177;SDS011;40085;53.004;6.770;2023-04-01T17:38:45;4.55;;;1.50;;
54177;SDS011;40085;53.004;6.770;2023-04-01T17:47:25;2.83;;;1.92;;
54177;SDS011;40085;53.004;6.770;2023-04-01T17:50:21;4.80;;;1.90;;
54177;SDS011;40085;53.004;6.770;2023-04-01T17:58:41;3.38;;;1.73;;
54177;SDS011;40085;53.004;6.770;2023-04-01T18:07:11;3.65;;;1.70;;
54177;SDS011;40085;53.004;6.770;2023-04-01T18:15:55;2.65;;;1.48;;
54177;SDS011;40085;53.004;6.770;2023-04-01T18:21:13;2.25;;;1.67;;
54177;SDS011;40085;53.004;6.770;2023-04-01T18:24:02;3.22;;;2.00;;
54177;SDS011;40085;53.004;6.770;2023-04-01T18:26:40;3.28;;;1.80;;
54177;SDS011;40085;53.004;6.770;2023-04-01T18:29:24;4.80;;;2.00;;
54177;SDS011;40085;53.004;6.770;2023-04-01T18:32:07;6.82;;;2.50;;
54177;SDS011;40085;53.004;6.770;2023-04-01T18:35:00;3.22;;;1.85;;
54177;SDS011;40085;53.004;6.770;2023-04-01T18:37:44;3.58;;;2.38;;
54177;SDS011;40085;53.004;6.770;2023-04-01T18:40:28;5.07;;;1.90;;
54177;SDS011;40085;53.004;6.770;2023-04-01T18:49:08;2.53;;;1.70;;
54177;SDS011;40085;53.004;6.770;2023-04-01T18:51:57;5.18;;;2.15;;
54177;SDS011;40085;53.004;6.770;2023-04-01T18:54:33;5.30;;;1.92;;
54177;SDS011;40085;53.004;6.770;2023-04-01T18:57:16;3.08;;;1.92;;
54177;SDS011;40085;53.004;6.770;2023-04-01T19:05:18;4.25;;;2.08;;
54177;SDS011;40085;53.004;6.770;2023-04-01T19:10:17;3.97;;;2.40;;
54177;SDS011;40085;53.004;6.770;2023-04-01T19:13:21;4.03;;;1.85;;
54177;SDS011;40085;53.004;6.770;2023-04-01T19:22:01;3.15;;;1.90;;
54177;SDS011;40085;53.004;6.770;2023-04-01T19:27:44;5.80;;;2.33;;
54177;SDS011;40085;53.004;6.770;2023-04-01T19:30:18;4.60;;;2.10;;
54177;SDS011;40085;53.004;6.770;2023-04-01T19:36:15;3.58;;;2.35;;
54177;SDS011;40085;53.004;6.770;2023-04-01T19:39:00;3.47;;;2.13;;
54177;SDS011;40085;53.004;6.770;2023-04-01T19:41:36;4.72;;;2.30;;
54177;SDS011;40085;53.004;6.770;2023-04-01T19:44:27;3.35;;;2.10;;
54177;SDS011;40085;53.004;6.770;2023-04-01T19:49:57;4.75;;;2.13;;
54177;SDS011;40085;53.004;6.770;2023-04-01T19:52:33;3.67;;;2.00;;
54177;SDS011;40085;53.004;6.770;2023-04-01T20:00:43;3.70;;;2.60;;
54177;SDS011;40085;53.004;6.770;2023-04-01T20:03:13;5.50;;;2.50;;
54177;SDS011;40085;53.004;6.770;2023-04-01T20:11:26;5.45;;;2.88;;
54177;SDS011;40085;53.004;6.770;2023-04-01T20:14:15;5.50;;;3.20;;
54177;SDS011;40085;53.004;6.770;2023-04-01T20:19:51;7.32;;;2.95;;
54177;SDS011;40085;53.004;6.770;2023-04-01T20:22:38;7.38;;;2.53;;
54177;SDS011;40085;53.004;6.770;2023-04-01T20:25:30;4.57;;;2.80;;
54177;SDS011;40085;53.004;6.770;2023-04-01T20:35:51;3.80;;;2.40;;
54177;SDS011;40085;53.004;6.770;2023-04-01T20:46:52;5.72;;;2.90;;
54177;SDS011;40085;53.004;6.770;2023-04-01T20:59:58;4.13;;;2.10;;
54177;SDS011;40085;53.004;6.770;2023-04-01T21:08:32;3.05;;;1.85;;
54177;SDS011;40085;53.004;6.770;2023-04-01T21:11:10;8.68;;;2.15;;
54177;SDS011;40085;53.004;6.770;2023-04-01T21:13:55;6.25;;;2.30;;
54177;SDS011;40085;53.004;6.770;2023-04-01T21:25:11;5.15;;;2.55;;
54177;SDS011;40085;53.004;6.770;2023-04-01T21:27:52;5.05;;;2.50;;
54177;SDS011;40085;53.004;6.770;2023-04-01T21:33:50;5.25;;;2.45;;
54177;SDS011;40085;53.004;6.770;2023-04-01T21:36:41;2.63;;;2.00;;
54177;SDS011;40085;53.004;6.770;2023-04-01T21:39:57;3.50;;;1.95;;
54177;SDS011;40085;53.004;6.770;2023-04-01T21:42:41;2.30;;;1.65;;
54177;SDS011;40085;53.004;6.770;2023-04-01T21:53:56;3.33;;;1.80;;
54177;SDS011;40085;53.004;6.770;2023-04-01T21:59:54;4.28;;;2.05;;
54177;SDS011;40085;53.004;6.770;2023-04-01T22:02:47;3.90;;;2.20;;
54177;SDS011;40085;53.004;6.770;2023-04-01T22:05:31;4.20;;;2.13;;
54177;SDS011;40085;53.004;6.770;2023-04-01T22:08:20;6.50;;;2.13;;
54177;SDS011;40085;53.004;6.770;2023-04-01T22:22:23;6.00;;;2.13;;
54177;SDS011;40085;53.004;6.770;2023-04-01T22:25:14;3.80;;;1.90;;
54177;SDS011;40085;53.004;6.770;2023-04-01T22:28:01;3.80;;;1.98;;
54177;SDS011;40085;53.004;6.770;2023-04-01T22:30:41;3.75;;;1.98;;
54177;SDS011;40085;53.004;6.770;2023-04-01T22:33:26;4.32;;;1.85;;
54177;SDS011;40085;53.004;6.770;2023-04-01T22:36:23;3.03;;;1.95;;
54177;SDS011;40085;53.004;6.770;2023-04-01T22:41:54;4.22;;;2.35;;
54177;SDS011;40085;53.004;6.770;2023-04-01T22:44:51;3.22;;;1.92;;
54177;SDS011;40085;53.004;6.770;2023-04-01T22:47:34;4.47;;;2.15;;
54177;SDS011;40085;53.004;6.770;2023-04-01T22:50:22;4.10;;;2.00;;
54177;SDS011;40085;53.004;6.770;2023-04-01T22:53:06;3.75;;;1.92;;
54177;SDS011;40085;53.004;6.770;2023-04-01T22:55:37;3.20;;;1.90;;
54177;SDS011;40085;53.004;6.770;2023-04-01T22:58:07;3.03;;;1.58;;
54177;SDS011;40085;53.004;6.770;2023-04-01T23:00:51;3.65;;;1.63;;
54177;SDS011;40085;53.004;6.770;2023-04-01T23:03:28;4.35;;;2.30;;
54177;SDS011;40085;53.004;6.770;2023-04-01T23:05:57;3.47;;;2.10;;
54177;SDS011;40085;53.004;6.770;2023-04-01T23:16:40;4.72;;;2.15;;
54177;SDS011;40085;53.004;6.770;2023-04-01T23:24:38;4.78;;;2.53;;
54177;SDS011;40085;53.004;6.770;2023-04-01T23:27:21;2.30;;;1.63;;
54177;SDS011;40085;53.004;6.770;2023-04-01T23:30:03;5.57;;;1.77;;
54177;SDS011;40085;53.004;6.770;2023-04-01T23:32:29;4.15;;;1.92;;
54177;SDS011;40085;53.004;6.770;2023-04-01T23:34:56;4.68;;;2.50;;
54177;SDS011;40085;53.004;6.770;2023-04-01T23:37:23;3.55;;;2.10;;
54177;SDS011;40085;53.004;6.770;2023-04-01T23:39:50;2.28;;;1.33;;
54177;SDS011;40085;53.004;6.770;2023-04-01T23:42:20;5.85;;;2.17;;
54177;SDS011;40085;53.004;6.770;2023-04-01T23:45:03;4.00;;;2.13;;
54177;SDS011;40085;53.004;6.770;2023-04-01T23:47:38;4.03;;;2.03;;
54177;SDS011;40085;53.004;6.770;2023-04-01T23:50:12;4.85;;;2.05;;
54177;SDS011;40085;53.004;6.770;2023-04-01T23:52:48;5.15;;;1.98;;
54177;SDS011;40085;53.004;6.770;2023-04-01T23:57:44;3.10;;;1.85;;
